sensor_id;sensor_type;location;lat;lon;timestamp;P1;durP1;ratioP1;P2;durP2;ratioP2
17949;SDS011;9100;48.700;9.316;2023-06-22T00:00:30;8.4;;;7.3;;
17949;SDS011;9100;48.700;9.316;2023-06-22T00:01:07;12;;;7.4;;
17949;SDS011;9100;48.700;9.316;2023-06-22T00:01:30;12;;;7.4;;
17949;SDS011;9100;48.700;9.316;2023-06-22T00:02:30;12;;;7.4;;
17949;SDS011;9100;48.700;9.316;2023-06-22T00:03:30;12;;;7.4;;
17949;SDS011;9100;48.700;9.316;2023-06-22T00:04:30;12;;;7.4;;
17949;SDS011;9100;48.700;9.316;2023-06-22T00:05:30;12;;;7.4;;
17949;SDS011;9100;48.700;9.316;2023-06-22T00:06:07;10;;;7.5;;
17949;SDS011;9100;48.700;9.316;2023-06-22T00:06:30;10;;;7.5;;
17949;SDS011;9100;48.700;9.316;2023-06-22T00:07:30;10;;;7.5;;
17949;SDS011;9100;48.700;9.316;2023-06-22T00:08:30;10;;;7.5;;
17949;SDS011;9100;48.700;9.316;2023-06-22T00:09:30;10;;;7.5;;
17949;SDS011;9100;48.700;9.316;2023-06-22T00:10:30;10;;;7.5;;
17949;SDS011;9100;48.700;9.316;2023-06-22T00:11:07;13.1;;;7.7;;
17949;SDS011;9100;48.700;9.316;2023-06-22T00:11:30;13.1;;;7.7;;
17949;SDS011;9100;48.700;9.316;2023-06-22T00:12:30;13.1;;;7.7;;
17949;SDS011;9100;48.700;9.316;2023-06-22T00:13:30;13.1;;;7.7;;
17949;SDS011;9100;48.700;9.316;2023-06-22T00:14:30;13.1;;;7.7;;
17949;SDS011;9100;48.700;9.316;2023-06-22T00:15:30;13.1;;;7.7;;
17949;SDS011;9100;48.700;9.316;2023-06-22T00:16:07;9.9;;;7.5;;
17949;SDS011;9100;48.700;9.316;2023-06-22T00:16:30;9.9;;;7.5;;
17949;SDS011;9100;48.700;9.316;2023-06-22T00:17:30;9.9;;;7.5;;
17949;SDS011;9100;48.700;9.316;2023-06-22T00:18:30;9.9;;;7.5;;
17949;SDS011;9100;48.700;9.316;2023-06-22T00:19:30;9.9;;;7.5;;
17949;SDS011;9100;48.700;9.316;2023-06-22T00:20:30;9.9;;;7.5;;
17949;SDS011;9100;48.700;9.316;2023-06-22T00:21:08;8.6;;;7.2;;
17949;SDS011;9100;48.700;9.316;2023-06-22T00:21:30;8.6;;;7.2;;
17949;SDS011;9100;48.700;9.316;2023-06-22T00:22:30;8.6;;;7.2;;
17949;SDS011;9100;48.700;9.316;2023-06-22T00:23:30;8.6;;;7.2;;
17949;SDS011;9100;48.700;9.316;2023-06-22T00:24:30;8.6;;;7.2;;
17949;SDS011;9100;48.700;9.316;2023-06-22T00:25:30;8.6;;;7.2;;
17949;SDS011;9100;48.700;9.316;2023-06-22T00:26:08;7.8;;;7;;
17949;SDS011;9100;48.700;9.316;2023-06-22T00:26:30;7.8;;;7;;
17949;SDS011;9100;48.700;9.316;2023-06-22T00:27:30;7.8;;;7;;
17949;SDS011;9100;48.700;9.316;2023-06-22T00:28:30;7.8;;;7;;
17949;SDS011;9100;48.700;9.316;2023-06-22T00:29:30;7.8;;;7;;
17949;SDS011;9100;48.700;9.316;2023-06-22T00:30:31;7.8;;;7;;
17949;SDS011;9100;48.700;9.316;2023-06-22T00:31:07;11.1;;;8.2;;
17949;SDS011;9100;48.700;9.316;2023-06-22T00:31:30;11.1;;;8.2;;
17949;SDS011;9100;48.700;9.316;2023-06-22T00:32:30;11.1;;;8.2;;
17949;SDS011;9100;48.700;9.316;2023-06-22T00:33:30;11.1;;;8.2;;
17949;SDS011;9100;48.700;9.316;2023-06-22T00:34:30;11.1;;;8.2;;
17949;SDS011;9100;48.700;9.316;2023-06-22T00:35:30;11.1;;;8.2;;
17949;SDS011;9100;48.700;9.316;2023-06-22T00:36:07;8.4;;;7.3;;
17949;SDS011;9100;48.700;9.316;2023-06-22T00:36:30;8.4;;;7.3;;
17949;SDS011;9100;48.700;9.316;2023-06-22T00:37:30;8.4;;;7.3;;
17949;SDS011;9100;48.700;9.316;2023-06-22T00:38:30;8.4;;;7.3;;
17949;SDS011;9100;48.700;9.316;2023-06-22T00:39:30;8.4;;;7.3;;
17949;SDS011;9100;48.700;9.316;2023-06-22T00:40:30;8.4;;;7.3;;
17949;SDS011;9100;48.700;9.316;2023-06-22T00:41:07;12.5;;;7.9;;
17949;SDS011;9100;48.700;9.316;2023-06-22T00:41:30;12.5;;;7.9;;
17949;SDS011;9100;48.700;9.316;2023-06-22T00:42:30;12.5;;;7.9;;
17949;SDS011;9100;48.700;9.316;2023-06-22T00:43:30;12.5;;;7.9;;
17949;SDS011;9100;48.700;9.316;2023-06-22T00:44:30;12.5;;;7.9;;
17949;SDS011;9100;48.700;9.316;2023-06-22T00:45:30;12.5;;;7.9;;
17949;SDS011;9100;48.700;9.316;2023-06-22T00:46:07;15;;;7.9;;
17949;SDS011;9100;48.700;9.316;2023-06-22T00:46:30;15;;;7.9;;
17949;SDS011;9100;48.700;9.316;2023-06-22T00:47:30;15;;;7.9;;
17949;SDS011;9100;48.700;9.316;2023-06-22T00:48:30;15;;;7.9;;
17949;SDS011;9100;48.700;9.316;2023-06-22T00:49:30;15;;;7.9;;
17949;SDS011;9100;48.700;9.316;2023-06-22T00:50:31;15;;;7.9;;
17949;SDS011;9100;48.700;9.316;2023-06-22T00:51:07;7.8;;;6.7;;
17949;SDS011;9100;48.700;9.316;2023-06-22T00:51:30;7.8;;;6.7;;
17949;SDS011;9100;48.700;9.316;2023-06-22T00:52:30;7.8;;;6.7;;
17949;SDS011;9100;48.700;9.316;2023-06-22T00:53:30;7.8;;;6.7;;
17949;SDS011;9100;48.700;9.316;2023-06-22T00:54:30;7.8;;;6.7;;
17949;SDS011;9100;48.700;9.316;2023-06-22T00:55:30;7.8;;;6.7;;
17949;SDS011;9100;48.700;9.316;2023-06-22T00:56:08;10;;;7.5;;
17949;SDS011;9100;48.700;9.316;2023-06-22T00:56:30;10;;;7.5;;
17949;SDS011;9100;48.700;9.316;2023-06-22T00:57:30;10;;;7.5;;
17949;SDS011;9100;48.700;9.316;2023-06-22T00:58:30;10;;;7.5;;
17949;SDS011;9100;48.700;9.316;2023-06-22T00:59:30;10;;;7.5;;
17949;SDS011;9100;48.700;9.316;2023-06-22T01:00:30;10;;;7.5;;
17949;SDS011;9100;48.700;9.316;2023-06-22T01:01:07;20.8;;;8.2;;
17949;SDS011;9100;48.700;9.316;2023-06-22T01:01:30;20.8;;;8.2;;
17949;SDS011;9100;48.700;9.316;2023-06-22T01:02:30;20.8;;;8.2;;
17949;SDS011;9100;48.700;9.316;2023-06-22T01:03:30;20.8;;;8.2;;
17949;SDS011;9100;48.700;9.316;2023-06-22T01:04:34;20.8;;;8.2;;
17949;SDS011;9100;48.700;9.316;2023-06-22T01:05:30;20.8;;;8.2;;
17949;SDS011;9100;48.700;9.316;2023-06-22T01:06:08;10.7;;;7.2;;
17949;SDS011;9100;48.700;9.316;2023-06-22T01:06:32;10.7;;;7.2;;
17949;SDS011;9100;48.700;9.316;2023-06-22T01:07:31;10.7;;;7.2;;
17949;SDS011;9100;48.700;9.316;2023-06-22T01:08:31;10.7;;;7.2;;
17949;SDS011;9100;48.700;9.316;2023-06-22T01:09:31;10.7;;;7.2;;
17949;SDS011;9100;48.700;9.316;2023-06-22T01:10:31;10.7;;;7.2;;
17949;SDS011;9100;48.700;9.316;2023-06-22T01:11:09;8.8;;;7.9;;
17949;SDS011;9100;48.700;9.316;2023-06-22T01:11:31;8.8;;;7.9;;
17949;SDS011;9100;48.700;9.316;2023-06-22T01:12:31;8.8;;;7.9;;
17949;SDS011;9100;48.700;9.316;2023-06-22T01:13:32;8.8;;;7.9;;
17949;SDS011;9100;48.700;9.316;2023-06-22T01:14:31;8.8;;;7.9;;
17949;SDS011;9100;48.700;9.316;2023-06-22T01:15:31;8.8;;;7.9;;
17949;SDS011;9100;48.700;9.316;2023-06-22T01:16:09;9.7;;;8.3;;
17949;SDS011;9100;48.700;9.316;2023-06-22T01:16:31;9.7;;;8.3;;
17949;SDS011;9100;48.700;9.316;2023-06-22T01:17:30;9.7;;;8.3;;
17949;SDS011;9100;48.700;9.316;2023-06-22T01:18:30;9.7;;;8.3;;
17949;SDS011;9100;48.700;9.316;2023-06-22T01:19:35;9.7;;;8.3;;
17949;SDS011;9100;48.700;9.316;2023-06-22T01:20:30;9.7;;;8.3;;
17949;SDS011;9100;48.700;9.316;2023-06-22T01:21:08;12.2;;;8;;
17949;SDS011;9100;48.700;9.316;2023-06-22T01:21:30;12.2;;;8;;
17949;SDS011;9100;48.700;9.316;2023-06-22T01:22:30;12.2;;;8;;
17949;SDS011;9100;48.700;9.316;2023-06-22T01:23:33;12.2;;;8;;
17949;SDS011;9100;48.700;9.316;2023-06-22T01:24:32;12.2;;;8;;
17949;SDS011;9100;48.700;9.316;2023-06-22T01:25:31;12.2;;;8;;
17949;SDS011;9100;48.700;9.316;2023-06-22T01:26:08;12.9;;;8.4;;
17949;SDS011;9100;48.700;9.316;2023-06-22T01:26:34;12.9;;;8.4;;
17949;SDS011;9100;48.700;9.316;2023-06-22T01:27:33;12.9;;;8.4;;
17949;SDS011;9100;48.700;9.316;2023-06-22T01:28:46;12.9;;;8.4;;
17949;SDS011;9100;48.700;9.316;2023-06-22T01:29:30;12.9;;;8.4;;
17949;SDS011;9100;48.700;9.316;2023-06-22T01:30:30;12.9;;;8.4;;
17949;SDS011;9100;48.700;9.316;2023-06-22T01:31:08;8.5;;;7.6;;
17949;SDS011;9100;48.700;9.316;2023-06-22T01:31:30;8.5;;;7.6;;
17949;SDS011;9100;48.700;9.316;2023-06-22T01:32:30;8.5;;;7.6;;
17949;SDS011;9100;48.700;9.316;2023-06-22T01:33:30;8.5;;;7.6;;
17949;SDS011;9100;48.700;9.316;2023-06-22T01:34:30;8.5;;;7.6;;
17949;SDS011;9100;48.700;9.316;2023-06-22T01:35:30;8.5;;;7.6;;
17949;SDS011;9100;48.700;9.316;2023-06-22T01:36:07;9.9;;;6.6;;
17949;SDS011;9100;48.700;9.316;2023-06-22T01:36:30;9.9;;;6.6;;
17949;SDS011;9100;48.700;9.316;2023-06-22T01:37:30;9.9;;;6.6;;
17949;SDS011;9100;48.700;9.316;2023-06-22T01:38:30;9.9;;;6.6;;
17949;SDS011;9100;48.700;9.316;2023-06-22T01:39:30;9.9;;;6.6;;
17949;SDS011;9100;48.700;9.316;2023-06-22T01:40:30;9.9;;;6.6;;
17949;SDS011;9100;48.700;9.316;2023-06-22T01:41:07;8.8;;;6.6;;
17949;SDS011;9100;48.700;9.316;2023-06-22T01:41:33;8.8;;;6.6;;
17949;SDS011;9100;48.700;9.316;2023-06-22T01:42:30;8.8;;;6.6;;
17949;SDS011;9100;48.700;9.316;2023-06-22T01:43:30;8.8;;;6.6;;
17949;SDS011;9100;48.700;9.316;2023-06-22T01:44:30;8.8;;;6.6;;
17949;SDS011;9100;48.700;9.316;2023-06-22T01:45:30;8.8;;;6.6;;
17949;SDS011;9100;48.700;9.316;2023-06-22T01:46:07;6.5;;;5;;
17949;SDS011;9100;48.700;9.316;2023-06-22T01:46:30;6.5;;;5;;
17949;SDS011;9100;48.700;9.316;2023-06-22T01:47:30;6.5;;;5;;
17949;SDS011;9100;48.700;9.316;2023-06-22T01:48:30;6.5;;;5;;
17949;SDS011;9100;48.700;9.316;2023-06-22T01:49:30;6.5;;;5;;
17949;SDS011;9100;48.700;9.316;2023-06-22T01:50:30;6.5;;;5;;
17949;SDS011;9100;48.700;9.316;2023-06-22T01:51:07;9.5;;;6.5;;
17949;SDS011;9100;48.700;9.316;2023-06-22T01:51:30;9.5;;;6.5;;
17949;SDS011;9100;48.700;9.316;2023-06-22T01:52:30;9.5;;;6.5;;
17949;SDS011;9100;48.700;9.316;2023-06-22T01:53:30;9.5;;;6.5;;
17949;SDS011;9100;48.700;9.316;2023-06-22T01:54:30;9.5;;;6.5;;
17949;SDS011;9100;48.700;9.316;2023-06-22T01:55:30;9.5;;;6.5;;
17949;SDS011;9100;48.700;9.316;2023-06-22T01:56:07;9.4;;;7.3;;
17949;SDS011;9100;48.700;9.316;2023-06-22T01:56:30;9.4;;;7.3;;
17949;SDS011;9100;48.700;9.316;2023-06-22T01:57:30;9.4;;;7.3;;
17949;SDS011;9100;48.700;9.316;2023-06-22T01:58:30;9.4;;;7.3;;
17949;SDS011;9100;48.700;9.316;2023-06-22T01:59:32;9.4;;;7.3;;
17949;SDS011;9100;48.700;9.316;2023-06-22T02:00:31;9.4;;;7.3;;
17949;SDS011;9100;48.700;9.316;2023-06-22T02:01:09;9.1;;;7.1;;
17949;SDS011;9100;48.700;9.316;2023-06-22T02:01:31;9.1;;;7.1;;
17949;SDS011;9100;48.700;9.316;2023-06-22T02:02:32;9.1;;;7.1;;
17949;SDS011;9100;48.700;9.316;2023-06-22T02:03:30;9.1;;;7.1;;
17949;SDS011;9100;48.700;9.316;2023-06-22T02:04:32;9.1;;;7.1;;
17949;SDS011;9100;48.700;9.316;2023-06-22T02:05:31;9.1;;;7.1;;
17949;SDS011;9100;48.700;9.316;2023-06-22T02:06:10;11.7;;;7.4;;
17949;SDS011;9100;48.700;9.316;2023-06-22T02:06:31;11.7;;;7.4;;
17949;SDS011;9100;48.700;9.316;2023-06-22T02:07:31;11.7;;;7.4;;
17949;SDS011;9100;48.700;9.316;2023-06-22T02:08:30;11.7;;;7.4;;
17949;SDS011;9100;48.700;9.316;2023-06-22T02:09:30;11.7;;;7.4;;
17949;SDS011;9100;48.700;9.316;2023-06-22T02:10:30;11.7;;;7.4;;
17949;SDS011;9100;48.700;9.316;2023-06-22T02:11:08;10;;;7.4;;
17949;SDS011;9100;48.700;9.316;2023-06-22T02:11:30;10;;;7.4;;
17949;SDS011;9100;48.700;9.316;2023-06-22T02:12:30;10;;;7.4;;
17949;SDS011;9100;48.700;9.316;2023-06-22T02:13:30;10;;;7.4;;
17949;SDS011;9100;48.700;9.316;2023-06-22T02:14:30;10;;;7.4;;
17949;SDS011;9100;48.700;9.316;2023-06-22T02:15:30;10;;;7.4;;
17949;SDS011;9100;48.700;9.316;2023-06-22T02:16:08;9.5;;;8.5;;
17949;SDS011;9100;48.700;9.316;2023-06-22T02:16:30;9.5;;;8.5;;
17949;SDS011;9100;48.700;9.316;2023-06-22T02:17:30;9.5;;;8.5;;
17949;SDS011;9100;48.700;9.316;2023-06-22T02:18:30;9.5;;;8.5;;
17949;SDS011;9100;48.700;9.316;2023-06-22T02:19:30;9.5;;;8.5;;
17949;SDS011;9100;48.700;9.316;2023-06-22T02:20:30;9.5;;;8.5;;
17949;SDS011;9100;48.700;9.316;2023-06-22T02:21:07;12.1;;;8.3;;
17949;SDS011;9100;48.700;9.316;2023-06-22T02:21:30;12.1;;;8.3;;
17949;SDS011;9100;48.700;9.316;2023-06-22T02:22:30;12.1;;;8.3;;
17949;SDS011;9100;48.700;9.316;2023-06-22T02:23:30;12.1;;;8.3;;
17949;SDS011;9100;48.700;9.316;2023-06-22T02:24:30;12.1;;;8.3;;
17949;SDS011;9100;48.700;9.316;2023-06-22T02:25:30;12.1;;;8.3;;
17949;SDS011;9100;48.700;9.316;2023-06-22T02:26:07;10.2;;;7.9;;
17949;SDS011;9100;48.700;9.316;2023-06-22T02:26:30;10.2;;;7.9;;
17949;SDS011;9100;48.700;9.316;2023-06-22T02:27:30;10.2;;;7.9;;
17949;SDS011;9100;48.700;9.316;2023-06-22T02:28:30;10.2;;;7.9;;
17949;SDS011;9100;48.700;9.316;2023-06-22T02:29:30;10.2;;;7.9;;
17949;SDS011;9100;48.700;9.316;2023-06-22T02:30:32;10.2;;;7.9;;
17949;SDS011;9100;48.700;9.316;2023-06-22T02:31:07;10.2;;;8.6;;
17949;SDS011;9100;48.700;9.316;2023-06-22T02:31:30;10.2;;;8.6;;
17949;SDS011;9100;48.700;9.316;2023-06-22T02:32:30;10.2;;;8.6;;
17949;SDS011;9100;48.700;9.316;2023-06-22T02:33:30;10.2;;;8.6;;
17949;SDS011;9100;48.700;9.316;2023-06-22T02:34:31;10.2;;;8.6;;
17949;SDS011;9100;48.700;9.316;2023-06-22T02:35:30;10.2;;;8.6;;
17949;SDS011;9100;48.700;9.316;2023-06-22T02:36:07;9.5;;;8;;
17949;SDS011;9100;48.700;9.316;2023-06-22T02:36:30;9.5;;;8;;
17949;SDS011;9100;48.700;9.316;2023-06-22T02:37:30;9.5;;;8;;
17949;SDS011;9100;48.700;9.316;2023-06-22T02:38:30;9.5;;;8;;
17949;SDS011;9100;48.700;9.316;2023-06-22T02:39:30;9.5;;;8;;
17949;SDS011;9100;48.700;9.316;2023-06-22T02:40:30;9.5;;;8;;
17949;SDS011;9100;48.700;9.316;2023-06-22T02:41:30;10.7;;;8.4;;
17949;SDS011;9100;48.700;9.316;2023-06-22T02:42:30;10.7;;;8.4;;
17949;SDS011;9100;48.700;9.316;2023-06-22T02:43:30;10.7;;;8.4;;
17949;SDS011;9100;48.700;9.316;2023-06-22T02:44:30;10.7;;;8.4;;
17949;SDS011;9100;48.700;9.316;2023-06-22T02:45:30;10.7;;;8.4;;
17949;SDS011;9100;48.700;9.316;2023-06-22T02:46:07;18;;;9.3;;
17949;SDS011;9100;48.700;9.316;2023-06-22T02:46:30;18;;;9.3;;
17949;SDS011;9100;48.700;9.316;2023-06-22T02:47:30;18;;;9.3;;
17949;SDS011;9100;48.700;9.316;2023-06-22T02:48:30;18;;;9.3;;
17949;SDS011;9100;48.700;9.316;2023-06-22T02:49:30;18;;;9.3;;
17949;SDS011;9100;48.700;9.316;2023-06-22T02:50:30;18;;;9.3;;
17949;SDS011;9100;48.700;9.316;2023-06-22T02:51:08;15.6;;;8.7;;
17949;SDS011;9100;48.700;9.316;2023-06-22T02:51:32;15.6;;;8.7;;
17949;SDS011;9100;48.700;9.316;2023-06-22T02:52:30;15.6;;;8.7;;
17949;SDS011;9100;48.700;9.316;2023-06-22T02:53:30;15.6;;;8.7;;
17949;SDS011;9100;48.700;9.316;2023-06-22T02:54:30;15.6;;;8.7;;
17949;SDS011;9100;48.700;9.316;2023-06-22T02:55:30;15.6;;;8.7;;
17949;SDS011;9100;48.700;9.316;2023-06-22T02:56:07;12.5;;;8.1;;
17949;SDS011;9100;48.700;9.316;2023-06-22T02:56:30;12.5;;;8.1;;
17949;SDS011;9100;48.700;9.316;2023-06-22T02:57:30;12.5;;;8.1;;
17949;SDS011;9100;48.700;9.316;2023-06-22T02:58:30;12.5;;;8.1;;
17949;SDS011;9100;48.700;9.316;2023-06-22T02:59:30;12.5;;;8.1;;
17949;SDS011;9100;48.700;9.316;2023-06-22T03:00:30;12.5;;;8.1;;
17949;SDS011;9100;48.700;9.316;2023-06-22T03:01:07;14.7;;;9.1;;
17949;SDS011;9100;48.700;9.316;2023-06-22T03:01:30;14.7;;;9.1;;
17949;SDS011;9100;48.700;9.316;2023-06-22T03:02:30;14.7;;;9.1;;
17949;SDS011;9100;48.700;9.316;2023-06-22T03:03:30;14.7;;;9.1;;
17949;SDS011;9100;48.700;9.316;2023-06-22T03:04:30;14.7;;;9.1;;
17949;SDS011;9100;48.700;9.316;2023-06-22T03:05:30;14.7;;;9.1;;
17949;SDS011;9100;48.700;9.316;2023-06-22T03:06:07;9.4;;;8.4;;
17949;SDS011;9100;48.700;9.316;2023-06-22T03:06:30;9.4;;;8.4;;
17949;SDS011;9100;48.700;9.316;2023-06-22T03:07:30;9.4;;;8.4;;
17949;SDS011;9100;48.700;9.316;2023-06-22T03:08:30;9.4;;;8.4;;
17949;SDS011;9100;48.700;9.316;2023-06-22T03:09:30;9.4;;;8.4;;
17949;SDS011;9100;48.700;9.316;2023-06-22T03:10:30;9.4;;;8.4;;
17949;SDS011;9100;48.700;9.316;2023-06-22T03:11:08;10.8;;;7.7;;
17949;SDS011;9100;48.700;9.316;2023-06-22T03:11:30;10.8;;;7.7;;
17949;SDS011;9100;48.700;9.316;2023-06-22T03:12:30;10.8;;;7.7;;
17949;SDS011;9100;48.700;9.316;2023-06-22T03:13:30;10.8;;;7.7;;
17949;SDS011;9100;48.700;9.316;2023-06-22T03:14:30;10.8;;;7.7;;
17949;SDS011;9100;48.700;9.316;2023-06-22T03:15:30;10.8;;;7.7;;
17949;SDS011;9100;48.700;9.316;2023-06-22T03:16:07;8.8;;;7.4;;
17949;SDS011;9100;48.700;9.316;2023-06-22T03:16:30;8.8;;;7.4;;
17949;SDS011;9100;48.700;9.316;2023-06-22T03:17:30;8.8;;;7.4;;
17949;SDS011;9100;48.700;9.316;2023-06-22T03:18:30;8.8;;;7.4;;
17949;SDS011;9100;48.700;9.316;2023-06-22T03:19:30;8.8;;;7.4;;
17949;SDS011;9100;48.700;9.316;2023-06-22T03:20:30;8.8;;;7.4;;
17949;SDS011;9100;48.700;9.316;2023-06-22T03:21:07;7.9;;;7.2;;
17949;SDS011;9100;48.700;9.316;2023-06-22T03:21:30;7.9;;;7.2;;
17949;SDS011;9100;48.700;9.316;2023-06-22T03:22:30;7.9;;;7.2;;
17949;SDS011;9100;48.700;9.316;2023-06-22T03:23:30;7.9;;;7.2;;
17949;SDS011;9100;48.700;9.316;2023-06-22T03:24:30;7.9;;;7.2;;
17949;SDS011;9100;48.700;9.316;2023-06-22T03:25:30;7.9;;;7.2;;
17949;SDS011;9100;48.700;9.316;2023-06-22T03:26:08;10.5;;;8.2;;
17949;SDS011;9100;48.700;9.316;2023-06-22T03:26:30;10.5;;;8.2;;
17949;SDS011;9100;48.700;9.316;2023-06-22T03:27:30;10.5;;;8.2;;
17949;SDS011;9100;48.700;9.316;2023-06-22T03:28:30;10.5;;;8.2;;
17949;SDS011;9100;48.700;9.316;2023-06-22T03:29:30;10.5;;;8.2;;
17949;SDS011;9100;48.700;9.316;2023-06-22T03:30:30;10.5;;;8.2;;
17949;SDS011;9100;48.700;9.316;2023-06-22T03:31:07;13.4;;;8;;
17949;SDS011;9100;48.700;9.316;2023-06-22T03:31:30;13.4;;;8;;
17949;SDS011;9100;48.700;9.316;2023-06-22T03:32:30;13.4;;;8;;
17949;SDS011;9100;48.700;9.316;2023-06-22T03:33:30;13.4;;;8;;
17949;SDS011;9100;48.700;9.316;2023-06-22T03:34:30;13.4;;;8;;
17949;SDS011;9100;48.700;9.316;2023-06-22T03:35:30;13.4;;;8;;
17949;SDS011;9100;48.700;9.316;2023-06-22T03:36:07;10;;;8.7;;
17949;SDS011;9100;48.700;9.316;2023-06-22T03:36:30;10;;;8.7;;
17949;SDS011;9100;48.700;9.316;2023-06-22T03:37:30;10;;;8.7;;
17949;SDS011;9100;48.700;9.316;2023-06-22T03:38:30;10;;;8.7;;
17949;SDS011;9100;48.700;9.316;2023-06-22T03:39:31;10;;;8.7;;
17949;SDS011;9100;48.700;9.316;2023-06-22T03:40:30;10;;;8.7;;
17949;SDS011;9100;48.700;9.316;2023-06-22T03:41:07;9.9;;;8.9;;
17949;SDS011;9100;48.700;9.316;2023-06-22T03:41:30;9.9;;;8.9;;
17949;SDS011;9100;48.700;9.316;2023-06-22T03:42:30;9.9;;;8.9;;
17949;SDS011;9100;48.700;9.316;2023-06-22T03:43:30;9.9;;;8.9;;
17949;SDS011;9100;48.700;9.316;2023-06-22T03:44:30;9.9;;;8.9;;
17949;SDS011;9100;48.700;9.316;2023-06-22T03:45:30;9.9;;;8.9;;
17949;SDS011;9100;48.700;9.316;2023-06-22T03:46:07;14.5;;;10;;
17949;SDS011;9100;48.700;9.316;2023-06-22T03:46:30;14.5;;;10;;
17949;SDS011;9100;48.700;9.316;2023-06-22T03:47:30;14.5;;;10;;
17949;SDS011;9100;48.700;9.316;2023-06-22T03:48:30;14.5;;;10;;
17949;SDS011;9100;48.700;9.316;2023-06-22T03:49:30;14.5;;;10;;
17949;SDS011;9100;48.700;9.316;2023-06-22T03:50:30;14.5;;;10;;
17949;SDS011;9100;48.700;9.316;2023-06-22T03:51:07;11.8;;;9.8;;
17949;SDS011;9100;48.700;9.316;2023-06-22T03:51:30;11.8;;;9.8;;
17949;SDS011;9100;48.700;9.316;2023-06-22T03:52:30;11.8;;;9.8;;
17949;SDS011;9100;48.700;9.316;2023-06-22T03:53:30;11.8;;;9.8;;
17949;SDS011;9100;48.700;9.316;2023-06-22T03:54:30;11.8;;;9.8;;
17949;SDS011;9100;48.700;9.316;2023-06-22T03:55:30;11.8;;;9.8;;
17949;SDS011;9100;48.700;9.316;2023-06-22T03:56:07;11.4;;;9.2;;
17949;SDS011;9100;48.700;9.316;2023-06-22T03:56:30;11.4;;;9.2;;
17949;SDS011;9100;48.700;9.316;2023-06-22T03:57:30;11.4;;;9.2;;
17949;SDS011;9100;48.700;9.316;2023-06-22T03:58:30;11.4;;;9.2;;
17949;SDS011;9100;48.700;9.316;2023-06-22T03:59:30;11.4;;;9.2;;
17949;SDS011;9100;48.700;9.316;2023-06-22T04:00:30;11.4;;;9.2;;
17949;SDS011;9100;48.700;9.316;2023-06-22T04:01:07;13.7;;;9.8;;
17949;SDS011;9100;48.700;9.316;2023-06-22T04:01:30;13.7;;;9.8;;
17949;SDS011;9100;48.700;9.316;2023-06-22T04:02:30;13.7;;;9.8;;
17949;SDS011;9100;48.700;9.316;2023-06-22T04:03:30;13.7;;;9.8;;
17949;SDS011;9100;48.700;9.316;2023-06-22T04:04:30;13.7;;;9.8;;
17949;SDS011;9100;48.700;9.316;2023-06-22T04:05:30;13.7;;;9.8;;
17949;SDS011;9100;48.700;9.316;2023-06-22T04:06:07;15.1;;;9.6;;
17949;SDS011;9100;48.700;9.316;2023-06-22T04:06:30;15.1;;;9.6;;
17949;SDS011;9100;48.700;9.316;2023-06-22T04:07:30;15.1;;;9.6;;
17949;SDS011;9100;48.700;9.316;2023-06-22T04:08:30;15.1;;;9.6;;
17949;SDS011;9100;48.700;9.316;2023-06-22T04:09:30;15.1;;;9.6;;
17949;SDS011;9100;48.700;9.316;2023-06-22T04:10:30;15.1;;;9.6;;
17949;SDS011;9100;48.700;9.316;2023-06-22T04:11:07;10.9;;;8.7;;
17949;SDS011;9100;48.700;9.316;2023-06-22T04:11:30;10.9;;;8.7;;
17949;SDS011;9100;48.700;9.316;2023-06-22T04:12:30;10.9;;;8.7;;
17949;SDS011;9100;48.700;9.316;2023-06-22T04:13:30;10.9;;;8.7;;
17949;SDS011;9100;48.700;9.316;2023-06-22T04:14:30;10.9;;;8.7;;
17949;SDS011;9100;48.700;9.316;2023-06-22T04:15:30;10.9;;;8.7;;
17949;SDS011;9100;48.700;9.316;2023-06-22T04:16:07;15;;;9;;
17949;SDS011;9100;48.700;9.316;2023-06-22T04:16:30;15;;;9;;
17949;SDS011;9100;48.700;9.316;2023-06-22T04:17:30;15;;;9;;
17949;SDS011;9100;48.700;9.316;2023-06-22T04:18:30;15;;;9;;
17949;SDS011;9100;48.700;9.316;2023-06-22T04:19:30;15;;;9;;
17949;SDS011;9100;48.700;9.316;2023-06-22T04:20:30;15;;;9;;
17949;SDS011;9100;48.700;9.316;2023-06-22T04:21:07;10.3;;;8;;
17949;SDS011;9100;48.700;9.316;2023-06-22T04:21:30;10.3;;;8;;
17949;SDS011;9100;48.700;9.316;2023-06-22T04:22:30;10.3;;;8;;
17949;SDS011;9100;48.700;9.316;2023-06-22T04:23:30;10.3;;;8;;
17949;SDS011;9100;48.700;9.316;2023-06-22T04:24:30;10.3;;;8;;
17949;SDS011;9100;48.700;9.316;2023-06-22T04:25:30;10.3;;;8;;
17949;SDS011;9100;48.700;9.316;2023-06-22T04:26:07;12;;;7.4;;
17949;SDS011;9100;48.700;9.316;2023-06-22T04:26:30;12;;;7.4;;
17949;SDS011;9100;48.700;9.316;2023-06-22T04:27:30;12;;;7.4;;
17949;SDS011;9100;48.700;9.316;2023-06-22T04:28:30;12;;;7.4;;
17949;SDS011;9100;48.700;9.316;2023-06-22T04:29:30;12;;;7.4;;
17949;SDS011;9100;48.700;9.316;2023-06-22T04:30:32;12;;;7.4;;
17949;SDS011;9100;48.700;9.316;2023-06-22T04:31:07;10.8;;;8.2;;
17949;SDS011;9100;48.700;9.316;2023-06-22T04:31:30;10.8;;;8.2;;
17949;SDS011;9100;48.700;9.316;2023-06-22T04:32:30;10.8;;;8.2;;
17949;SDS011;9100;48.700;9.316;2023-06-22T04:33:30;10.8;;;8.2;;
17949;SDS011;9100;48.700;9.316;2023-06-22T04:34:30;10.8;;;8.2;;
17949;SDS011;9100;48.700;9.316;2023-06-22T04:35:30;10.8;;;8.2;;
17949;SDS011;9100;48.700;9.316;2023-06-22T04:36:08;10.9;;;8.6;;
17949;SDS011;9100;48.700;9.316;2023-06-22T04:36:31;10.9;;;8.6;;
17949;SDS011;9100;48.700;9.316;2023-06-22T04:37:30;10.9;;;8.6;;
17949;SDS011;9100;48.700;9.316;2023-06-22T04:38:30;10.9;;;8.6;;
17949;SDS011;9100;48.700;9.316;2023-06-22T04:39:30;10.9;;;8.6;;
17949;SDS011;9100;48.700;9.316;2023-06-22T04:40:30;10.9;;;8.6;;
17949;SDS011;9100;48.700;9.316;2023-06-22T04:41:07;8.7;;;7.7;;
17949;SDS011;9100;48.700;9.316;2023-06-22T04:41:30;8.7;;;7.7;;
17949;SDS011;9100;48.700;9.316;2023-06-22T04:42:30;8.7;;;7.7;;
17949;SDS011;9100;48.700;9.316;2023-06-22T04:43:30;8.7;;;7.7;;
17949;SDS011;9100;48.700;9.316;2023-06-22T04:44:30;8.7;;;7.7;;
17949;SDS011;9100;48.700;9.316;2023-06-22T04:45:30;8.7;;;7.7;;
17949;SDS011;9100;48.700;9.316;2023-06-22T04:46:07;9;;;7.5;;
17949;SDS011;9100;48.700;9.316;2023-06-22T04:46:30;9;;;7.5;;
17949;SDS011;9100;48.700;9.316;2023-06-22T04:47:30;9;;;7.5;;
17949;SDS011;9100;48.700;9.316;2023-06-22T04:48:30;9;;;7.5;;
17949;SDS011;9100;48.700;9.316;2023-06-22T04:49:30;9;;;7.5;;
17949;SDS011;9100;48.700;9.316;2023-06-22T04:50:30;9;;;7.5;;
17949;SDS011;9100;48.700;9.316;2023-06-22T04:51:07;12.7;;;8.5;;
17949;SDS011;9100;48.700;9.316;2023-06-22T04:51:30;12.7;;;8.5;;
17949;SDS011;9100;48.700;9.316;2023-06-22T04:52:30;12.7;;;8.5;;
17949;SDS011;9100;48.700;9.316;2023-06-22T04:53:30;12.7;;;8.5;;
17949;SDS011;9100;48.700;9.316;2023-06-22T04:54:30;12.7;;;8.5;;
17949;SDS011;9100;48.700;9.316;2023-06-22T04:55:30;12.7;;;8.5;;
17949;SDS011;9100;48.700;9.316;2023-06-22T04:56:07;10.5;;;7.1;;
17949;SDS011;9100;48.700;9.316;2023-06-22T04:56:30;10.5;;;7.1;;
17949;SDS011;9100;48.700;9.316;2023-06-22T04:57:30;10.5;;;7.1;;
17949;SDS011;9100;48.700;9.316;2023-06-22T04:58:30;10.5;;;7.1;;
17949;SDS011;9100;48.700;9.316;2023-06-22T04:59:30;10.5;;;7.1;;
17949;SDS011;9100;48.700;9.316;2023-06-22T05:00:30;10.5;;;7.1;;
17949;SDS011;9100;48.700;9.316;2023-06-22T05:01:07;8.1;;;7.1;;
17949;SDS011;9100;48.700;9.316;2023-06-22T05:01:30;8.1;;;7.1;;
17949;SDS011;9100;48.700;9.316;2023-06-22T05:02:30;8.1;;;7.1;;
17949;SDS011;9100;48.700;9.316;2023-06-22T05:03:30;8.1;;;7.1;;
17949;SDS011;9100;48.700;9.316;2023-06-22T05:04:30;8.1;;;7.1;;
17949;SDS011;9100;48.700;9.316;2023-06-22T05:05:30;8.1;;;7.1;;
17949;SDS011;9100;48.700;9.316;2023-06-22T05:06:07;10.5;;;7.5;;
17949;SDS011;9100;48.700;9.316;2023-06-22T05:06:30;10.5;;;7.5;;
17949;SDS011;9100;48.700;9.316;2023-06-22T05:07:30;10.5;;;7.5;;
17949;SDS011;9100;48.700;9.316;2023-06-22T05:08:30;10.5;;;7.5;;
17949;SDS011;9100;48.700;9.316;2023-06-22T05:09:30;10.5;;;7.5;;
17949;SDS011;9100;48.700;9.316;2023-06-22T05:10:30;10.5;;;7.5;;
17949;SDS011;9100;48.700;9.316;2023-06-22T05:11:07;11.3;;;7.2;;
17949;SDS011;9100;48.700;9.316;2023-06-22T05:11:30;11.3;;;7.2;;
17949;SDS011;9100;48.700;9.316;2023-06-22T05:12:30;11.3;;;7.2;;
17949;SDS011;9100;48.700;9.316;2023-06-22T05:13:30;11.3;;;7.2;;
17949;SDS011;9100;48.700;9.316;2023-06-22T05:14:30;11.3;;;7.2;;
17949;SDS011;9100;48.700;9.316;2023-06-22T05:15:30;11.3;;;7.2;;
17949;SDS011;9100;48.700;9.316;2023-06-22T05:16:07;11.8;;;7.3;;